首页
METAR-TAF:

METAR-TAF

机场 :

哥伦比亚, 南卡罗来纳州, 美国

纬度: 33-56-31N, 经度: 081-07-05W, 海拔: 71米

当前天气观测

该预报发布于33分钟前的09:56 UTC
静风
温度 12°C
湿度 76%
气压 1016 hPa
能見度: 16.1公里
天空无云

METAR: KCAE 050956Z 00000KT 10SM CLR 12/08 A2999 RMK AO2 SLP154 T01170083 $

时间: 06:29 (10:29 UTC)

预报

该预报发布于1小时和51分钟前的08:38 UTC
预报有效从05日的 09点(UTC)到 06日的 06点(UTC)
风速3节,风向多变
能見度: 10公里
散云层高于7000英尺
多云层高于15000英尺
从 05日的 1600点(UTC)
风速5节,风向东南
能見度: 10公里
多云层高于7000英尺
多云层高于12000英尺
从 06日的 0000点(UTC)
风速3节,风向多变
能見度: 10公里
散云层高于10000英尺

TAF: KCAE 050838Z 0509/0606 VRB03KT P6SM SCT070 BKN150 FM051600 14005KT P6SM BKN070 BKN120 FM060000 VRB03KT P6SM SCT100

超过4000个机场的气象观测和天气预报(METAR&TAF报告)。

可查询的气象台以黄色和红色小点在地图上表示。

将鼠标移到小点上方,可查看气象台名称。

然后点击查看天气观测和预报。

如需切换地图:点击带黑十字的绿色按钮放大地图;点击带横线的绿色按钮缩小地图;或者点击绿色箭头查看邻近地区的地图。


METAR-TAF: